sensor_id;sensor_type;location;lat;lon;timestamp;temperature;humidity
11089;DHT22;5598;48.648;8.908;2023-07-30T00:01:27;17.80;99.90
11089;DHT22;5598;48.648;8.908;2023-07-30T00:03:54;17.80;99.90
11089;DHT22;5598;48.648;8.908;2023-07-30T00:06:22;17.70;99.90
11089;DHT22;5598;48.648;8.908;2023-07-30T00:08:49;17.80;99.90
11089;DHT22;5598;48.648;8.908;2023-07-30T00:11:15;18.00;99.90
11089;DHT22;5598;48.648;8.908;2023-07-30T00:13:42;18.20;99.90
11089;DHT22;5598;48.648;8.908;2023-07-30T00:16:09;17.80;99.90
11089;DHT22;5598;48.648;8.908;2023-07-30T00:18:36;17.80;99.90
11089;DHT22;5598;48.648;8.908;2023-07-30T00:21:03;18.10;99.90
11089;DHT22;5598;48.648;8.908;2023-07-30T00:23:31;18.00;99.90
11089;DHT22;5598;48.648;8.908;2023-07-30T00:25:58;18.00;99.90
11089;DHT22;5598;48.648;8.908;2023-07-30T00:28:24;18.00;99.90
11089;DHT22;5598;48.648;8.908;2023-07-30T00:30:51;18.20;99.90
11089;DHT22;5598;48.648;8.908;2023-07-30T00:33:18;18.00;99.90
11089;DHT22;5598;48.648;8.908;2023-07-30T00:35:45;18.00;99.90
11089;DHT22;5598;48.648;8.908;2023-07-30T00:38:12;18.00;99.90
11089;DHT22;5598;48.648;8.908;2023-07-30T00:40:41;18.00;99.90
11089;DHT22;5598;48.648;8.908;2023-07-30T00:43:10;17.90;99.90
11089;DHT22;5598;48.648;8.908;2023-07-30T00:45:38;18.00;99.90
11089;DHT22;5598;48.648;8.908;2023-07-30T00:48:06;18.40;99.90
11089;DHT22;5598;48.648;8.908;2023-07-30T00:50:33;18.00;99.90
11089;DHT22;5598;48.648;8.908;2023-07-30T00:53:00;17.90;99.90
11089;DHT22;5598;48.648;8.908;2023-07-30T00:55:27;17.90;99.90
11089;DHT22;5598;48.648;8.908;2023-07-30T00:57:56;17.80;99.90
11089;DHT22;5598;48.648;8.908;2023-07-30T01:00:24;18.10;99.90
11089;DHT22;5598;48.648;8.908;2023-07-30T01:02:52;17.80;99.90
11089;DHT22;5598;48.648;8.908;2023-07-30T01:05:19;17.80;99.90
11089;DHT22;5598;48.648;8.908;2023-07-30T01:07:45;17.90;99.90
11089;DHT22;5598;48.648;8.908;2023-07-30T01:10:12;17.70;99.90
11089;DHT22;5598;48.648;8.908;2023-07-30T01:12:40;17.80;99.90
11089;DHT22;5598;48.648;8.908;2023-07-30T01:15:09;17.70;99.90
11089;DHT22;5598;48.648;8.908;2023-07-30T01:17:36;17.70;99.90
11089;DHT22;5598;48.648;8.908;2023-07-30T01:20:04;17.60;99.90
11089;DHT22;5598;48.648;8.908;2023-07-30T01:22:33;17.60;99.90
11089;DHT22;5598;48.648;8.908;2023-07-30T01:24:59;17.60;99.90
11089;DHT22;5598;48.648;8.908;2023-07-30T01:27:28;17.60;99.90
11089;DHT22;5598;48.648;8.908;2023-07-30T01:30:00;17.70;99.90
11089;DHT22;5598;48.648;8.908;2023-07-30T01:32:29;17.70;99.90
11089;DHT22;5598;48.648;8.908;2023-07-30T01:34:58;17.60;99.90
11089;DHT22;5598;48.648;8.908;2023-07-30T01:37:26;17.80;99.90
11089;DHT22;5598;48.648;8.908;2023-07-30T01:39:55;17.60;99.90
11089;DHT22;5598;48.648;8.908;2023-07-30T01:42:28;17.60;99.90
11089;DHT22;5598;48.648;8.908;2023-07-30T01:44:55;17.60;99.90
11089;DHT22;5598;48.648;8.908;2023-07-30T01:47:22;17.50;99.90
11089;DHT22;5598;48.648;8.908;2023-07-30T01:49:48;17.50;99.90
11089;DHT22;5598;48.648;8.908;2023-07-30T01:52:15;17.50;99.90
11089;DHT22;5598;48.648;8.908;2023-07-30T01:54:42;17.60;99.90
11089;DHT22;5598;48.648;8.908;2023-07-30T01:57:10;17.50;99.90
11089;DHT22;5598;48.648;8.908;2023-07-30T01:59:38;17.50;99.90
11089;DHT22;5598;48.648;8.908;2023-07-30T02:02:05;17.50;99.90
11089;DHT22;5598;48.648;8.908;2023-07-30T02:04:32;17.50;99.90
11089;DHT22;5598;48.648;8.908;2023-07-30T02:06:59;17.50;99.90
11089;DHT22;5598;48.648;8.908;2023-07-30T02:09:27;17.40;99.90
11089;DHT22;5598;48.648;8.908;2023-07-30T02:11:54;17.50;99.90
11089;DHT22;5598;48.648;8.908;2023-07-30T02:14:22;17.40;99.90
11089;DHT22;5598;48.648;8.908;2023-07-30T02:16:49;17.30;99.90
11089;DHT22;5598;48.648;8.908;2023-07-30T02:19:16;17.30;99.90
11089;DHT22;5598;48.648;8.908;2023-07-30T02:21:43;17.30;99.90
11089;DHT22;5598;48.648;8.908;2023-07-30T02:24:10;17.30;99.90
11089;DHT22;5598;48.648;8.908;2023-07-30T02:26:37;17.30;99.90
11089;DHT22;5598;48.648;8.908;2023-07-30T02:29:04;17.30;99.90
11089;DHT22;5598;48.648;8.908;2023-07-30T02:31:32;17.30;99.90
11089;DHT22;5598;48.648;8.908;2023-07-30T02:33:59;17.20;99.90
11089;DHT22;5598;48.648;8.908;2023-07-30T02:36:26;17.10;99.90
11089;DHT22;5598;48.648;8.908;2023-07-30T02:38:52;17.00;99.90
11089;DHT22;5598;48.648;8.908;2023-07-30T02:41:19;17.10;99.90
11089;DHT22;5598;48.648;8.908;2023-07-30T02:43:46;17.00;99.90
11089;DHT22;5598;48.648;8.908;2023-07-30T02:46:13;16.90;99.90
11089;DHT22;5598;48.648;8.908;2023-07-30T02:48:41;16.80;99.90
11089;DHT22;5598;48.648;8.908;2023-07-30T02:51:08;17.20;99.90
11089;DHT22;5598;48.648;8.908;2023-07-30T02:53:35;16.90;99.90
11089;DHT22;5598;48.648;8.908;2023-07-30T02:56:01;17.40;99.90
11089;DHT22;5598;48.648;8.908;2023-07-30T02:58:28;16.90;99.90
11089;DHT22;5598;48.648;8.908;2023-07-30T03:00:55;16.90;99.90
11089;DHT22;5598;48.648;8.908;2023-07-30T03:03:22;17.20;99.90
11089;DHT22;5598;48.648;8.908;2023-07-30T03:05:50;16.70;99.90
11089;DHT22;5598;48.648;8.908;2023-07-30T03:08:17;17.10;99.90
11089;DHT22;5598;48.648;8.908;2023-07-30T03:10:44;17.40;99.90
11089;DHT22;5598;48.648;8.908;2023-07-30T03:13:11;17.30;99.90
11089;DHT22;5598;48.648;8.908;2023-07-30T03:15:38;16.80;99.90
11089;DHT22;5598;48.648;8.908;2023-07-30T03:18:04;17.20;99.90
11089;DHT22;5598;48.648;8.908;2023-07-30T03:20:31;16.90;99.90
11089;DHT22;5598;48.648;8.908;2023-07-30T03:22:59;16.80;99.90
11089;DHT22;5598;48.648;8.908;2023-07-30T03:25:26;16.90;99.90
11089;DHT22;5598;48.648;8.908;2023-07-30T03:27:53;16.90;99.90
11089;DHT22;5598;48.648;8.908;2023-07-30T03:30:20;16.80;99.90
11089;DHT22;5598;48.648;8.908;2023-07-30T03:32:46;16.80;99.90
11089;DHT22;5598;48.648;8.908;2023-07-30T03:35:13;16.80;99.90
11089;DHT22;5598;48.648;8.908;2023-07-30T03:37:40;16.90;99.90
11089;DHT22;5598;48.648;8.908;2023-07-30T03:40:09;17.00;99.90
11089;DHT22;5598;48.648;8.908;2023-07-30T03:42:36;16.90;99.90
11089;DHT22;5598;48.648;8.908;2023-07-30T03:45:03;16.90;99.90
11089;DHT22;5598;48.648;8.908;2023-07-30T03:47:30;16.90;99.90
11089;DHT22;5598;48.648;8.908;2023-07-30T03:49:57;16.90;99.90
11089;DHT22;5598;48.648;8.908;2023-07-30T03:52:23;16.90;99.90
11089;DHT22;5598;48.648;8.908;2023-07-30T03:54:50;16.80;99.90
11089;DHT22;5598;48.648;8.908;2023-07-30T03:57:18;16.80;99.90
11089;DHT22;5598;48.648;8.908;2023-07-30T03:59:45;16.80;99.90
11089;DHT22;5598;48.648;8.908;2023-07-30T04:02:12;16.60;99.90
11089;DHT22;5598;48.648;8.908;2023-07-30T04:04:41;16.90;99.90
11089;DHT22;5598;48.648;8.908;2023-07-30T04:07:09;16.90;99.90
11089;DHT22;5598;48.648;8.908;2023-07-30T04:09:35;16.90;99.90
11089;DHT22;5598;48.648;8.908;2023-07-30T04:12:03;16.90;99.90
11089;DHT22;5598;48.648;8.908;2023-07-30T04:14:31;16.90;99.90
11089;DHT22;5598;48.648;8.908;2023-07-30T04:16:58;16.90;99.90
11089;DHT22;5598;48.648;8.908;2023-07-30T04:19:25;16.90;99.90
11089;DHT22;5598;48.648;8.908;2023-07-30T04:21:51;16.90;99.90
11089;DHT22;5598;48.648;8.908;2023-07-30T04:24:18;16.90;99.90
11089;DHT22;5598;48.648;8.908;2023-07-30T04:26:45;17.00;99.90
11089;DHT22;5598;48.648;8.908;2023-07-30T04:29:14;17.00;99.90
11089;DHT22;5598;48.648;8.908;2023-07-30T04:31:43;17.00;99.90
11089;DHT22;5598;48.648;8.908;2023-07-30T04:34:10;17.00;99.90
11089;DHT22;5598;48.648;8.908;2023-07-30T04:36:36;17.00;99.90
11089;DHT22;5598;48.648;8.908;2023-07-30T04:39:03;17.10;99.90
11089;DHT22;5598;48.648;8.908;2023-07-30T04:41:30;17.00;99.90
11089;DHT22;5598;48.648;8.908;2023-07-30T04:43:57;17.00;99.90
11089;DHT22;5598;48.648;8.908;2023-07-30T04:46:23;17.00;99.90
11089;DHT22;5598;48.648;8.908;2023-07-30T04:48:52;17.00;99.90
11089;DHT22;5598;48.648;8.908;2023-07-30T04:51:19;17.10;99.90
11089;DHT22;5598;48.648;8.908;2023-07-30T04:53:46;17.10;99.90
11089;DHT22;5598;48.648;8.908;2023-07-30T04:56:12;17.10;99.90
11089;DHT22;5598;48.648;8.908;2023-07-30T04:58:40;17.10;99.90
11089;DHT22;5598;48.648;8.908;2023-07-30T05:01:06;17.10;99.90
11089;DHT22;5598;48.648;8.908;2023-07-30T05:03:33;17.10;99.90
11089;DHT22;5598;48.648;8.908;2023-07-30T05:06:01;17.10;99.90
11089;DHT22;5598;48.648;8.908;2023-07-30T05:08:28;17.00;99.90
11089;DHT22;5598;48.648;8.908;2023-07-30T05:10:55;17.10;99.90
11089;DHT22;5598;48.648;8.908;2023-07-30T05:13:22;17.10;99.90
11089;DHT22;5598;48.648;8.908;2023-07-30T05:15:48;17.10;99.90
11089;DHT22;5598;48.648;8.908;2023-07-30T05:18:15;17.10;99.90
11089;DHT22;5598;48.648;8.908;2023-07-30T05:20:42;17.20;99.90
11089;DHT22;5598;48.648;8.908;2023-07-30T05:23:10;17.20;99.90
11089;DHT22;5598;48.648;8.908;2023-07-30T05:25:37;17.20;99.90
11089;DHT22;5598;48.648;8.908;2023-07-30T05:28:03;17.10;99.90
11089;DHT22;5598;48.648;8.908;2023-07-30T05:30:30;17.20;99.90
11089;DHT22;5598;48.648;8.908;2023-07-30T05:32:57;17.10;99.90
11089;DHT22;5598;48.648;8.908;2023-07-30T05:35:24;17.10;99.90
11089;DHT22;5598;48.648;8.908;2023-07-30T05:37:50;17.10;99.90
11089;DHT22;5598;48.648;8.908;2023-07-30T05:40:18;17.10;99.90
11089;DHT22;5598;48.648;8.908;2023-07-30T05:42:45;17.10;99.90
11089;DHT22;5598;48.648;8.908;2023-07-30T05:45:12;17.00;99.90
11089;DHT22;5598;48.648;8.908;2023-07-30T05:47:39;17.10;99.90
11089;DHT22;5598;48.648;8.908;2023-07-30T05:50:07;17.10;99.90
11089;DHT22;5598;48.648;8.908;2023-07-30T05:52:34;17.10;99.90
11089;DHT22;5598;48.648;8.908;2023-07-30T05:55:00;17.10;99.90
11089;DHT22;5598;48.648;8.908;2023-07-30T05:57:29;17.10;99.90
11089;DHT22;5598;48.648;8.908;2023-07-30T05:59:56;17.10;99.90
11089;DHT22;5598;48.648;8.908;2023-07-30T06:02:23;17.10;99.90
11089;DHT22;5598;48.648;8.908;2023-07-30T06:04:50;17.10;99.90
11089;DHT22;5598;48.648;8.908;2023-07-30T06:07:17;17.10;99.90
11089;DHT22;5598;48.648;8.908;2023-07-30T06:09:44;17.20;99.90
11089;DHT22;5598;48.648;8.908;2023-07-30T06:12:11;17.20;99.90
11089;DHT22;5598;48.648;8.908;2023-07-30T06:14:39;17.30;99.90
11089;DHT22;5598;48.648;8.908;2023-07-30T06:17:06;17.30;99.90
11089;DHT22;5598;48.648;8.908;2023-07-30T06:19:33;17.30;99.90
11089;DHT22;5598;48.648;8.908;2023-07-30T06:22:00;17.40;99.90
11089;DHT22;5598;48.648;8.908;2023-07-30T06:24:27;17.40;99.90
11089;DHT22;5598;48.648;8.908;2023-07-30T06:26:54;17.50;99.90
11089;DHT22;5598;48.648;8.908;2023-07-30T06:29:21;17.50;99.90
11089;DHT22;5598;48.648;8.908;2023-07-30T06:31:49;17.60;99.90
11089;DHT22;5598;48.648;8.908;2023-07-30T06:34:16;17.60;99.90
11089;DHT22;5598;48.648;8.908;2023-07-30T06:36:42;17.70;99.90
11089;DHT22;5598;48.648;8.908;2023-07-30T06:39:09;17.70;99.90
11089;DHT22;5598;48.648;8.908;2023-07-30T06:41:36;17.80;99.90
11089;DHT22;5598;48.648;8.908;2023-07-30T06:44:03;17.80;99.90
11089;DHT22;5598;48.648;8.908;2023-07-30T06:46:30;17.90;99.90
11089;DHT22;5598;48.648;8.908;2023-07-30T06:48:58;17.90;99.90
11089;DHT22;5598;48.648;8.908;2023-07-30T06:51:25;17.90;99.90
11089;DHT22;5598;48.648;8.908;2023-07-30T06:53:52;17.90;99.90
11089;DHT22;5598;48.648;8.908;2023-07-30T06:56:18;17.90;99.90
11089;DHT22;5598;48.648;8.908;2023-07-30T06:58:45;17.80;99.90
11089;DHT22;5598;48.648;8.908;2023-07-30T07:01:12;18.00;99.90
11089;DHT22;5598;48.648;8.908;2023-07-30T07:03:39;18.00;99.90
11089;DHT22;5598;48.648;8.908;2023-07-30T07:06:07;18.00;99.90
11089;DHT22;5598;48.648;8.908;2023-07-30T07:08:34;17.90;99.90
11089;DHT22;5598;48.648;8.908;2023-07-30T07:11:00;17.80;99.90
11089;DHT22;5598;48.648;8.908;2023-07-30T07:13:27;17.70;99.90
11089;DHT22;5598;48.648;8.908;2023-07-30T07:15:54;17.70;99.90
11089;DHT22;5598;48.648;8.908;2023-07-30T07:18:21;17.60;99.90
11089;DHT22;5598;48.648;8.908;2023-07-30T07:20:48;17.60;99.90
11089;DHT22;5598;48.648;8.908;2023-07-30T07:23:16;18.10;99.90
11089;DHT22;5598;48.648;8.908;2023-07-30T07:25:44;18.10;99.90
11089;DHT22;5598;48.648;8.908;2023-07-30T07:28:11;17.70;99.90
11089;DHT22;5598;48.648;8.908;2023-07-30T07:30:37;17.60;99.90
11089;DHT22;5598;48.648;8.908;2023-07-30T07:33:04;17.50;99.90
11089;DHT22;5598;48.648;8.908;2023-07-30T07:35:32;17.50;99.90
11089;DHT22;5598;48.648;8.908;2023-07-30T07:37:59;17.60;99.90
11089;DHT22;5598;48.648;8.908;2023-07-30T07:40:27;17.50;99.90
11089;DHT22;5598;48.648;8.908;2023-07-30T07:42:55;17.40;99.90
11089;DHT22;5598;48.648;8.908;2023-07-30T07:45:22;17.60;99.90
11089;DHT22;5598;48.648;8.908;2023-07-30T07:47:48;17.60;99.90
11089;DHT22;5598;48.648;8.908;2023-07-30T07:50:15;17.50;99.90
11089;DHT22;5598;48.648;8.908;2023-07-30T07:52:42;17.60;99.90
11089;DHT22;5598;48.648;8.908;2023-07-30T07:55:09;17.60;99.90
11089;DHT22;5598;48.648;8.908;2023-07-30T07:57:37;17.60;99.90
11089;DHT22;5598;48.648;8.908;2023-07-30T08:00:05;17.70;99.90
11089;DHT22;5598;48.648;8.908;2023-07-30T08:02:32;17.70;99.90
11089;DHT22;5598;48.648;8.908;2023-07-30T08:04:59;17.80;99.90
11089;DHT22;5598;48.648;8.908;2023-07-30T08:07:25;17.90;99.90
11089;DHT22;5598;48.648;8.908;2023-07-30T08:09:52;18.00;99.90
11089;DHT22;5598;48.648;8.908;2023-07-30T08:12:20;18.20;99.90
11089;DHT22;5598;48.648;8.908;2023-07-30T08:14:48;18.30;99.90
11089;DHT22;5598;48.648;8.908;2023-07-30T08:17:16;18.60;99.90
11089;DHT22;5598;48.648;8.908;2023-07-30T08:19:42;18.80;99.90
11089;DHT22;5598;48.648;8.908;2023-07-30T08:22:09;19.10;99.90
11089;DHT22;5598;48.648;8.908;2023-07-30T08:24:36;19.20;99.90
11089;DHT22;5598;48.648;8.908;2023-07-30T08:27:03;19.30;99.90
11089;DHT22;5598;48.648;8.908;2023-07-30T08:29:30;19.30;99.90
11089;DHT22;5598;48.648;8.908;2023-07-30T08:31:58;19.30;99.90
11089;DHT22;5598;48.648;8.908;2023-07-30T08:34:24;19.40;99.90
11089;DHT22;5598;48.648;8.908;2023-07-30T08:36:51;19.40;99.90
11089;DHT22;5598;48.648;8.908;2023-07-30T08:39:18;19.60;99.90
11089;DHT22;5598;48.648;8.908;2023-07-30T08:41:45;19.60;99.90
11089;DHT22;5598;48.648;8.908;2023-07-30T08:44:12;19.70;99.90
11089;DHT22;5598;48.648;8.908;2023-07-30T08:46:39;19.80;99.90
11089;DHT22;5598;48.648;8.908;2023-07-30T08:49:07;19.80;99.90
11089;DHT22;5598;48.648;8.908;2023-07-30T08:51:36;20.10;99.90
11089;DHT22;5598;48.648;8.908;2023-07-30T08:54:04;20.00;99.90
11089;DHT22;5598;48.648;8.908;2023-07-30T08:56:32;20.10;99.90
11089;DHT22;5598;48.648;8.908;2023-07-30T08:59:00;20.20;99.90
11089;DHT22;5598;48.648;8.908;2023-07-30T09:01:30;20.10;99.90
11089;DHT22;5598;48.648;8.908;2023-07-30T09:04:01;20.00;99.90
11089;DHT22;5598;48.648;8.908;2023-07-30T09:06:29;19.90;99.90
11089;DHT22;5598;48.648;8.908;2023-07-30T09:08:56;19.80;99.90
11089;DHT22;5598;48.648;8.908;2023-07-30T09:11:25;19.80;99.90
11089;DHT22;5598;48.648;8.908;2023-07-30T09:13:54;19.70;99.90
11089;DHT22;5598;48.648;8.908;2023-07-30T09:16:25;19.50;99.90
11089;DHT22;5598;48.648;8.908;2023-07-30T09:18:53;19.60;99.90
11089;DHT22;5598;48.648;8.908;2023-07-30T09:21:22;19.40;99.90
11089;DHT22;5598;48.648;8.908;2023-07-30T09:23:56;19.30;99.90
11089;DHT22;5598;48.648;8.908;2023-07-30T09:26:23;19.20;99.90
11089;DHT22;5598;48.648;8.908;2023-07-30T09:28:50;19.00;99.90
11089;DHT22;5598;48.648;8.908;2023-07-30T09:31:17;18.90;99.90
11089;DHT22;5598;48.648;8.908;2023-07-30T09:33:44;18.80;99.90
11089;DHT22;5598;48.648;8.908;2023-07-30T09:36:11;18.80;99.90
11089;DHT22;5598;48.648;8.908;2023-07-30T09:38:39;18.80;99.90
11089;DHT22;5598;48.648;8.908;2023-07-30T09:41:07;18.70;99.90
11089;DHT22;5598;48.648;8.908;2023-07-30T09:43:35;18.70;99.90
11089;DHT22;5598;48.648;8.908;2023-07-30T09:46:03;18.80;99.90
11089;DHT22;5598;48.648;8.908;2023-07-30T09:48:31;18.80;99.90
11089;DHT22;5598;48.648;8.908;2023-07-30T09:50:59;19.30;99.90
11089;DHT22;5598;48.648;8.908;2023-07-30T09:53:29;18.80;99.90
11089;DHT22;5598;48.648;8.908;2023-07-30T09:56:00;19.10;99.90
11089;DHT22;5598;48.648;8.908;2023-07-30T09:58:28;19.30;99.90
11089;DHT22;5598;48.648;8.908;2023-07-30T10:00:56;20.30;99.90
11089;DHT22;5598;48.648;8.908;2023-07-30T10:03:24;20.20;99.90
11089;DHT22;5598;48.648;8.908;2023-07-30T10:05:55;20.40;99.90
11089;DHT22;5598;48.648;8.908;2023-07-30T10:08:25;20.70;99.90
11089;DHT22;5598;48.648;8.908;2023-07-30T10:10:55;20.90;99.90
11089;DHT22;5598;48.648;8.908;2023-07-30T10:13:23;21.20;99.90
11089;DHT22;5598;48.648;8.908;2023-07-30T10:15:52;21.60;99.90
11089;DHT22;5598;48.648;8.908;2023-07-30T10:18:18;21.90;99.90
11089;DHT22;5598;48.648;8.908;2023-07-30T10:20:52;22.00;99.90
11089;DHT22;5598;48.648;8.908;2023-07-30T10:23:20;22.10;99.90
11089;DHT22;5598;48.648;8.908;2023-07-30T10:25:48;22.10;99.90
11089;DHT22;5598;48.648;8.908;2023-07-30T10:28:31;21.90;99.90
11089;DHT22;5598;48.648;8.908;2023-07-30T10:31:00;22.00;99.90
11089;DHT22;5598;48.648;8.908;2023-07-30T10:33:44;21.90;99.90
11089;DHT22;5598;48.648;8.908;2023-07-30T10:36:11;21.90;99.90
11089;DHT22;5598;48.648;8.908;2023-07-30T10:38:39;21.90;99.90
11089;DHT22;5598;48.648;8.908;2023-07-30T10:41:09;21.90;99.90
11089;DHT22;5598;48.648;8.908;2023-07-30T10:43:38;22.10;99.90
11089;DHT22;5598;48.648;8.908;2023-07-30T10:46:07;22.40;99.90
11089;DHT22;5598;48.648;8.908;2023-07-30T10:48:35;22.60;99.90
11089;DHT22;5598;48.648;8.908;2023-07-30T10:51:03;22.80;99.90
11089;DHT22;5598;48.648;8.908;2023-07-30T10:53:30;23.20;99.90
11089;DHT22;5598;48.648;8.908;2023-07-30T10:55:59;23.40;98.00
11089;DHT22;5598;48.648;8.908;2023-07-30T10:58:28;23.40;96.30
11089;DHT22;5598;48.648;8.908;2023-07-30T11:00:56;23.40;96.00
11089;DHT22;5598;48.648;8.908;2023-07-30T11:03:25;23.40;96.10
11089;DHT22;5598;48.648;8.908;2023-07-30T11:05:53;23.50;96.00
11089;DHT22;5598;48.648;8.908;2023-07-30T11:08:21;23.70;95.50
11089;DHT22;5598;48.648;8.908;2023-07-30T11:10:58;23.80;95.80
11089;DHT22;5598;48.648;8.908;2023-07-30T11:13:25;23.80;95.70
11089;DHT22;5598;48.648;8.908;2023-07-30T11:15:52;23.90;95.00
11089;DHT22;5598;48.648;8.908;2023-07-30T11:18:18;24.00;95.10
11089;DHT22;5598;48.648;8.908;2023-07-30T11:20:47;24.10;94.00
11089;DHT22;5598;48.648;8.908;2023-07-30T11:23:19;24.10;95.00
11089;DHT22;5598;48.648;8.908;2023-07-30T11:25:47;23.90;92.10
11089;DHT22;5598;48.648;8.908;2023-07-30T11:28:26;23.80;93.20
11089;DHT22;5598;48.648;8.908;2023-07-30T11:30:54;23.90;93.40
11089;DHT22;5598;48.648;8.908;2023-07-30T11:33:21;24.00;91.00
11089;DHT22;5598;48.648;8.908;2023-07-30T11:35:49;24.10;92.60
11089;DHT22;5598;48.648;8.908;2023-07-30T11:38:17;24.20;93.20
11089;DHT22;5598;48.648;8.908;2023-07-30T11:40:45;24.40;92.60
11089;DHT22;5598;48.648;8.908;2023-07-30T11:43:12;24.60;87.80
11089;DHT22;5598;48.648;8.908;2023-07-30T11:45:40;24.60;90.40
11089;DHT22;5598;48.648;8.908;2023-07-30T11:48:07;24.70;90.80
11089;DHT22;5598;48.648;8.908;2023-07-30T11:50:45;24.40;88.70
11089;DHT22;5598;48.648;8.908;2023-07-30T11:53:14;24.10;91.10
11089;DHT22;5598;48.648;8.908;2023-07-30T11:55:55;24.10;92.00
11089;DHT22;5598;48.648;8.908;2023-07-30T11:58:22;24.50;93.10
11089;DHT22;5598;48.648;8.908;2023-07-30T12:00:54;24.60;89.30
11089;DHT22;5598;48.648;8.908;2023-07-30T12:03:21;24.50;86.80
11089;DHT22;5598;48.648;8.908;2023-07-30T12:05:49;24.50;91.20
11089;DHT22;5598;48.648;8.908;2023-07-30T12:08:25;24.60;85.40
11089;DHT22;5598;48.648;8.908;2023-07-30T12:10:53;24.60;88.20
11089;DHT22;5598;48.648;8.908;2023-07-30T12:13:22;24.50;89.20
11089;DHT22;5598;48.648;8.908;2023-07-30T12:15:51;24.00;92.10
11089;DHT22;5598;48.648;8.908;2023-07-30T12:18:18;23.60;93.40
11089;DHT22;5598;48.648;8.908;2023-07-30T12:20:45;23.50;93.70
11089;DHT22;5598;48.648;8.908;2023-07-30T12:23:12;23.30;93.50
11089;DHT22;5598;48.648;8.908;2023-07-30T12:25:42;23.00;94.10
11089;DHT22;5598;48.648;8.908;2023-07-30T12:28:11;23.00;94.00
11089;DHT22;5598;48.648;8.908;2023-07-30T12:30:38;22.90;94.20
11089;DHT22;5598;48.648;8.908;2023-07-30T12:33:05;22.80;94.50
11089;DHT22;5598;48.648;8.908;2023-07-30T12:35:32;22.80;94.10
11089;DHT22;5598;48.648;8.908;2023-07-30T12:37:59;22.70;93.80
11089;DHT22;5598;48.648;8.908;2023-07-30T12:40:26;22.50;94.30
11089;DHT22;5598;48.648;8.908;2023-07-30T12:42:56;22.80;94.70
11089;DHT22;5598;48.648;8.908;2023-07-30T12:45:23;22.80;94.20
11089;DHT22;5598;48.648;8.908;2023-07-30T12:47:50;22.80;94.40
11089;DHT22;5598;48.648;8.908;2023-07-30T12:50:17;22.90;93.60
11089;DHT22;5598;48.648;8.908;2023-07-30T12:52:43;23.00;93.60
11089;DHT22;5598;48.648;8.908;2023-07-30T12:55:10;23.00;93.00
11089;DHT22;5598;48.648;8.908;2023-07-30T12:57:37;23.10;92.50
11089;DHT22;5598;48.648;8.908;2023-07-30T13:00:06;23.20;92.50
11089;DHT22;5598;48.648;8.908;2023-07-30T13:02:33;23.50;92.40
11089;DHT22;5598;48.648;8.908;2023-07-30T13:05:01;23.50;90.60
11089;DHT22;5598;48.648;8.908;2023-07-30T13:07:29;23.60;92.60
11089;DHT22;5598;48.648;8.908;2023-07-30T13:10:03;23.60;90.60
11089;DHT22;5598;48.648;8.908;2023-07-30T13:12:30;23.50;90.20
11089;DHT22;5598;48.648;8.908;2023-07-30T13:14:57;23.40;90.80
11089;DHT22;5598;48.648;8.908;2023-07-30T13:17:27;23.80;93.10
11089;DHT22;5598;48.648;8.908;2023-07-30T13:19:54;23.10;92.00
11089;DHT22;5598;48.648;8.908;2023-07-30T13:22:21;23.00;90.90
11089;DHT22;5598;48.648;8.908;2023-07-30T13:24:48;23.00;91.50
11089;DHT22;5598;48.648;8.908;2023-07-30T13:27:17;23.80;91.80
11089;DHT22;5598;48.648;8.908;2023-07-30T13:29:44;23.00;92.00
11089;DHT22;5598;48.648;8.908;2023-07-30T13:32:11;23.20;90.50
11089;DHT22;5598;48.648;8.908;2023-07-30T13:34:39;23.30;91.10
11089;DHT22;5598;48.648;8.908;2023-07-30T13:37:06;23.40;91.40
11089;DHT22;5598;48.648;8.908;2023-07-30T13:39:33;23.40;90.80
11089;DHT22;5598;48.648;8.908;2023-07-30T13:42:00;23.50;89.50
11089;DHT22;5598;48.648;8.908;2023-07-30T13:44:27;23.10;90.00
11089;DHT22;5598;48.648;8.908;2023-07-30T13:46:54;23.10;90.50
11089;DHT22;5598;48.648;8.908;2023-07-30T13:49:20;22.80;89.20
11089;DHT22;5598;48.648;8.908;2023-07-30T13:51:49;22.80;90.50
11089;DHT22;5598;48.648;8.908;2023-07-30T13:54:15;22.80;90.70
11089;DHT22;5598;48.648;8.908;2023-07-30T13:56:42;23.10;90.80
11089;DHT22;5598;48.648;8.908;2023-07-30T13:59:09;22.90;91.10
11089;DHT22;5598;48.648;8.908;2023-07-30T14:01:36;23.10;91.40
11089;DHT22;5598;48.648;8.908;2023-07-30T14:04:03;23.20;90.50
11089;DHT22;5598;48.648;8.908;2023-07-30T14:06:30;23.20;90.50
11089;DHT22;5598;48.648;8.908;2023-07-30T14:08:58;23.30;90.90
11089;DHT22;5598;48.648;8.908;2023-07-30T14:11:26;23.20;90.50
11089;DHT22;5598;48.648;8.908;2023-07-30T14:13:53;23.20;87.80
11089;DHT22;5598;48.648;8.908;2023-07-30T14:16:20;23.00;90.70
11089;DHT22;5598;48.648;8.908;2023-07-30T14:18:46;23.00;91.20
11089;DHT22;5598;48.648;8.908;2023-07-30T14:21:14;23.10;89.90
11089;DHT22;5598;48.648;8.908;2023-07-30T14:23:40;23.10;89.90
11089;DHT22;5598;48.648;8.908;2023-07-30T14:26:09;23.10;90.80
11089;DHT22;5598;48.648;8.908;2023-07-30T14:28:35;23.10;90.40
11089;DHT22;5598;48.648;8.908;2023-07-30T14:31:02;23.10;89.60
11089;DHT22;5598;48.648;8.908;2023-07-30T14:33:29;23.20;89.60
11089;DHT22;5598;48.648;8.908;2023-07-30T14:35:56;22.90;89.70
11089;DHT22;5598;48.648;8.908;2023-07-30T14:38:23;22.80;90.20
11089;DHT22;5598;48.648;8.908;2023-07-30T14:40:49;22.90;90.30
11089;DHT22;5598;48.648;8.908;2023-07-30T14:43:18;23.00;90.60
11089;DHT22;5598;48.648;8.908;2023-07-30T14:45:44;23.00;90.10
11089;DHT22;5598;48.648;8.908;2023-07-30T14:48:11;23.00;89.90
11089;DHT22;5598;48.648;8.908;2023-07-30T14:50:39;23.10;88.40
11089;DHT22;5598;48.648;8.908;2023-07-30T14:53:06;23.10;88.30
11089;DHT22;5598;48.648;8.908;2023-07-30T14:55:33;23.00;88.30
11089;DHT22;5598;48.648;8.908;2023-07-30T14:58:00;22.90;88.20
11089;DHT22;5598;48.648;8.908;2023-07-30T15:00:30;22.70;89.20
11089;DHT22;5598;48.648;8.908;2023-07-30T15:02:57;22.70;89.50
11089;DHT22;5598;48.648;8.908;2023-07-30T15:05:23;22.60;90.10
11089;DHT22;5598;48.648;8.908;2023-07-30T15:07:50;22.60;88.10
11089;DHT22;5598;48.648;8.908;2023-07-30T15:10:17;22.50;87.90
11089;DHT22;5598;48.648;8.908;2023-07-30T15:12:44;22.40;90.10
11089;DHT22;5598;48.648;8.908;2023-07-30T15:15:11;22.50;90.00
11089;DHT22;5598;48.648;8.908;2023-07-30T15:17:39;22.50;89.30
11089;DHT22;5598;48.648;8.908;2023-07-30T15:20:07;22.60;89.40
11089;DHT22;5598;48.648;8.908;2023-07-30T15:22:34;22.70;87.70
11089;DHT22;5598;48.648;8.908;2023-07-30T15:25:01;22.70;88.40
11089;DHT22;5598;48.648;8.908;2023-07-30T15:27:29;22.60;87.10
11089;DHT22;5598;48.648;8.908;2023-07-30T15:29:56;22.70;87.80
11089;DHT22;5598;48.648;8.908;2023-07-30T15:32:22;22.80;85.40
11089;DHT22;5598;48.648;8.908;2023-07-30T15:34:51;22.90;84.90
11089;DHT22;5598;48.648;8.908;2023-07-30T15:37:18;22.60;85.70
11089;DHT22;5598;48.648;8.908;2023-07-30T15:39:45;22.60;82.70
11089;DHT22;5598;48.648;8.908;2023-07-30T15:42:11;22.50;83.20
11089;DHT22;5598;48.648;8.908;2023-07-30T15:44:38;22.50;82.00
11089;DHT22;5598;48.648;8.908;2023-07-30T15:47:05;22.50;80.00